Latest Weather Observations for Moorabbin Airport

IDV60801

Issued at 3:02 am EDT Thursday 29 January 2015 (issued every 30 minutes, with the page automatically refreshed every 10 minutes)

About weather observations | Map of weather stations | Latest weather observations for VIC | Other Formats
Station Details ID: 086077 Name: MOORABBIN AIRPORT Lat: -37.98 Lon: 145.10 Height: 12.1 m
Data from the previous 72 hours. | See also: Recent months at Moorabbin Airport
Date/Time
EDT
Temp
°C
App
Temp
°C
Dew
Point
Rel
Hum
%
Delta-T
°C
Wind Press
QNH
hPa
Press
MSL
hPa
Rain
since 9 am
mm
Dir
 
Spd
km/h
Gust
km/h
Spd
kts
Gust
kts
29/03:00am 11.7 9.6 8.2 79 1.7 SE 9 13 5 7 1019.5 1019.5 0.0
29/02:30am 12.4 9.5 8.3 76 2.0 SE 13 15 7 8 1019.6 1019.6 0.0
29/02:00am 12.4 9.9 8.3 76 2.0 SE 11 17 6 9 1019.6 1019.6 0.0
29/01:30am 12.8 9.6 8.3 74 2.2 SE 15 17 8 9 1019.9 1019.9 0.0
29/01:00am 13.7 10.1 8.5 71 2.6 SE 17 20 9 11 1020.1 1020.1 0.0
29/12:30am 14.1 10.5 8.5 69 2.8 SE 17 20 9 11 1020.1 1020.1 0.0
29/12:00am 14.6 10.7 8.5 67 3.1 SE 19 24 10 13 1020.0 1020.0 0.0
 
Date/Time
EDT
Temp
°C
App
Temp
°C
Dew
Point
Rel
Hum
%
Delta-T
°C
Wind Press
QNH
hPa
Press
MSL
hPa
Rain
since 9 am
mm
Dir
 
Spd
km/h
Gust
km/h
Spd
kts
Gust
kts
28/11:30pm 15.2 11.1 8.7 65 3.3 SE 20 28 11 15 1020.0 1020.0 0.0
28/11:00pm 15.8 10.9 8.5 62 3.7 SE 24 33 13 18 1019.9 1019.9 0.0
28/10:30pm 16.2 12.0 8.4 60 4.0 SE 20 30 11 16 1019.9 1019.9 0.0
28/10:00pm 16.7 12.2 8.4 58 4.2 SE 22 26 12 14 1019.7 1019.7 0.0
28/09:30pm 17.5 12.7 8.9 57 4.5 SE 24 32 13 17 1019.3 1019.3 0.0
28/09:00pm 18.2 12.9 8.5 53 5.0 SE 26 32 14 17 1019.0 1019.0 0.0
28/08:30pm 19.1 13.3 8.1 49 5.7 SE 28 39 15 21 1018.6 1018.6 0.0
28/08:00pm 20.0 13.4 7.7 45 6.3 SE 32 46 17 25 1018.4 1018.4 0.0
28/07:30pm 20.8 14.2 7.8 43 6.7 SE 32 48 17 26 1018.1 1018.1 0.0
28/07:12pm 21.0 13.9 8.0 43 6.8 SE 35 54 19 29 1018.0 1018.0 0.0
28/07:00pm 21.4 14.0 8.3 43 6.9 SSE 37 50 20 27 1017.9 1017.9 0.0
28/06:30pm 22.0 14.0 7.4 39 7.6 SSE 39 50 21 27 1017.7 1017.7 0.0
28/06:00pm 23.0 15.9 7.9 38 7.9 SSE 35 50 19 27 1017.6 1017.5 0.0
28/05:30pm 24.0 16.9 8.0 36 8.5 SE 35 52 19 28 1017.2 1017.2 0.0
28/05:00pm 23.7 15.8 7.8 36 8.4 SSE 39 54 21 29 1017.3 1017.3 0.0
28/04:30pm 24.2 16.9 8.6 37 8.4 SSE 37 48 20 26 1017.2 1017.2 0.0
28/04:03pm 24.4 16.9 9.6 39 8.1 SSE 39 57 21 31 1017.1 1017.1 0.0
28/04:00pm 24.1 16.1 8.9 38 8.2 SSE 41 57 22 31 1017.1 1017.1 0.0
28/03:49pm 24.7 17.6 9.4 38 8.3 SSE 37 56 20 30 1017.1 1017.1 0.0
28/03:30pm 24.6 17.2 9.7 39 8.2 SSE 39 54 21 29 1017.2 1017.2 0.0
28/03:00pm 24.3 16.9 9.8 40 7.9 SSE 39 56 21 30 1017.3 1017.3 0.0
28/02:31pm 23.0 16.3 8.3 39 7.8 SE 33 54 18 29 1017.3 1017.3 0.0
28/02:30pm 23.9 17.6 9.1 39 8.0 SE 32 48 17 26 1017.3 1017.3 0.0
28/02:00pm 22.4 15.3 9.6 44 6.9 SSE 37 50 20 27 1017.7 1017.7 0.0
28/01:55pm 22.4 15.2 9.2 43 7.1 SSE 37 48 20 26 1017.6 1017.6 0.0
28/01:30pm 24.6 18.5 9.7 39 8.2 ESE 32 46 17 25 1017.7 1017.7 0.0
28/01:00pm 24.0 17.9 9.9 41 7.7 SE 32 41 17 22 1017.8 1017.8 0.0
28/12:30pm 22.5 16.2 9.6 44 7.0 SE 33 44 18 24 1017.8 1017.8 0.0
28/12:00pm 21.8 15.6 10.0 47 6.4 SE 33 54 18 29 1018.0 1018.0 0.0
28/11:54am 23.7 17.9 11.4 46 6.9 ESE 33 54 18 29 1017.9 1017.9 0.0
28/11:30am 21.4 15.2 9.9 48 6.2 SE 33 44 18 24 1018.1 1018.1 0.0
28/11:21am 21.0 14.4 9.9 49 6.0 ESE 35 46 19 25 1018.0 1018.0 0.0
28/11:00am 20.5 13.1 9.7 50 5.8 ESE 39 52 21 28 1018.1 1018.1 0.0
28/10:53am 21.3 15.1 10.2 49 6.0 ESE 33 52 18 28 1018.2 1018.2 0.0
28/10:30am 20.7 14.2 10.5 52 5.5 ESE 35 46 19 25 1018.4 1018.4 0.0
28/10:00am 19.3 12.9 9.5 53 5.2 SE 33 48 18 26 1018.3 1018.3 0.0
28/09:38am 18.7 13.2 9.2 54 5.0 ESE 28 46 15 25 1018.4 1018.4 0.0
28/09:30am 18.5 12.4 9.6 56 4.7 SE 32 41 17 22 1018.5 1018.5 0.0
28/09:00am 17.0 11.5 9.2 60 4.0 SE 28 41 15 22 1018.4 1018.4 0.0
28/08:30am 15.8 11.9 9.5 66 3.3 SE 20 28 11 15 1018.2 1018.2 0.0
28/08:00am 13.7 9.9 9.0 73 2.4 SE 19 24 10 13 1018.0 1018.0 0.0
28/07:30am 13.2 10.2 9.1 76 2.1 SE 15 19 8 10 1017.9 1017.9 0.0
28/07:00am 11.6 9.2 8.6 82 1.5 SSE 11 15 6 8 1017.5 1017.5 0.0
28/06:30am 11.3 8.7 7.8 79 1.7 SSE 11 13 6 7 1017.3 1017.3 0.0
28/06:00am 11.8 9.4 8.6 81 1.6 SSE 11 15 6 8 1017.2 1017.1 0.0
28/05:30am 10.6 8.8 7.8 83 1.4 ESE 7 9 4 5 1017.0 1017.0 0.0
28/05:00am 10.8 9.0 8.0 83 1.4 SE 7 9 4 5 1016.9 1016.9 0.0
28/04:30am 11.3 9.2 8.2 81 1.5 SE 9 13 5 7 1016.7 1016.7 0.0
28/04:00am 11.8 9.0 8.6 81 1.6 SE 13 15 7 8 1016.7 1016.7 0.0
28/03:30am 12.2 9.8 8.5 78 1.8 SSE 11 13 6 7 1016.9 1016.9 0.0
28/03:00am 13.4 11.1 9.1 75 2.2 SSE 11 15 6 8 1017.0 1017.0 0.0
28/02:30am 14.2 11.6 9.2 72 2.5 SSE 13 15 7 8 1017.1 1017.1 0.0
28/02:00am 14.5 11.8 9.1 70 2.7 SSE 13 19 7 10 1017.4 1017.4 0.0
28/01:30am 14.2 11.8 8.8 70 2.7 SE 11 17 6 9 1017.7 1017.7 0.0
28/01:00am 14.5 11.4 8.7 68 2.9 SSE 15 19 8 10 1017.9 1017.9 0.0
28/12:30am 14.6 12.6 8.5 67 3.1 SSE 9 15 5 8 1018.0 1018.0 0.0
28/12:00am 14.8 12.0 8.5 66 3.2 SSE 13 17 7 9 1018.2 1018.2 0.0
 
Date/Time
EDT
Temp
°C
App
Temp
°C
Dew
Point
Rel
Hum
%
Delta-T
°C
Wind Press
QNH
hPa
Press
MSL
hPa
Rain
since 9 am
mm
Dir
 
Spd
km/h
Gust
km/h
Spd
kts
Gust
kts
27/11:30pm 14.8 11.2 8.5 66 3.2 SSE 17 24 9 13 1018.3 1018.3 0.0
27/11:00pm 15.2 11.6 8.4 64 3.4 SSE 17 24 9 13 1018.3 1018.3 0.0
27/10:30pm 15.4 11.2 8.2 62 3.6 SSE 20 28 11 15 1018.3 1018.3 0.0
27/10:00pm 15.3 10.7 8.3 63 3.5 SSE 22 33 12 18 1018.2 1018.2 0.0
27/09:30pm 15.3 10.4 8.5 64 3.4 SSE 24 33 13 18 1017.8 1017.8 0.0
27/09:00pm 16.0 12.0 8.2 60 3.9 SSE 19 28 10 15 1017.7 1017.7 0.0
27/08:30pm 16.0 10.4 7.2 56 4.4 S 26 35 14 19 1017.6 1017.6 0.0
27/08:00pm 16.9 11.8 7.8 55 4.6 SSE 24 33 13 18 1017.2 1017.2 0.0
27/07:30pm 17.8 12.4 7.8 52 5.1 S 26 35 14 19 1017.0 1017.0 0.0
27/07:00pm 17.8 12.2 7.2 50 5.3 S 26 39 14 21 1016.7 1016.7 0.0
27/06:30pm 18.4 13.3 7.8 50 5.4 S 24 35 13 19 1016.4 1016.4 0.0
27/06:00pm 18.1 12.7 8.1 52 5.1 S 26 35 14 19 1016.4 1016.4 0.0
27/05:30pm 17.7 12.0 8.3 54 4.8 S 28 44 15 24 1016.4 1016.4 0.0
27/05:00pm 18.3 13.2 9.1 55 4.8 S 26 35 14 19 1016.5 1016.5 0.0
27/04:30pm 19.0 13.6 7.8 48 5.7 S 26 39 14 21 1016.5 1016.5 0.0
27/04:00pm 18.8 12.9 7.6 48 5.7 S 28 39 15 21 1016.6 1016.6 0.0
27/03:30pm 18.9 13.6 8.3 50 5.5 SSE 26 33 14 18 1016.7 1016.7 0.0
27/03:00pm 18.1 12.0 8.4 53 5.0 S 30 44 16 24 1016.6 1016.6 0.0
27/02:30pm 18.6 13.7 8.3 51 5.3 SSE 24 35 13 19 1016.7 1016.7 0.0
27/02:00pm 18.7 13.8 8.4 51 5.3 SSE 24 32 13 17 1016.7 1016.7 0.0
27/01:30pm 18.7 13.8 8.4 51 5.3 SSE 24 33 13 18 1016.9 1016.9 0.0
27/01:00pm 18.1 13.3 8.7 54 4.9 SSE 24 33 13 18 1017.2 1017.2 0.0
27/12:30pm 17.7 12.8 8.3 54 4.8 SSE 24 32 13 17 1017.2 1017.2 0.0
27/12:00pm 17.4 12.5 8.5 56 4.6 SSE 24 33 13 18 1017.4 1017.4 0.0
27/11:30am 17.8 13.5 9.2 57 4.5 S 22 30 12 16 1017.4 1017.4 0.0
27/11:00am 17.9 13.4 8.5 54 4.8 SSE 22 32 12 17 1017.4 1017.4 0.0
27/10:30am 17.7 12.7 8.0 53 4.9 SE 24 32 13 17 1017.4 1017.4 0.0
27/10:00am 17.2 11.8 8.1 55 4.6 SE 26 35 14 19 1017.5 1017.5 0.0
27/09:30am 16.6 11.6 8.1 57 4.3 SE 24 32 13 17 1017.4 1017.4 0.0
27/09:00am 16.0 11.2 9.0 63 3.6 SE 24 32 13 17 1017.4 1017.4 0.0
27/08:30am 15.4 11.5 9.3 67 3.1 SE 20 30 11 16 1017.0 1017.0 0.0
27/08:00am 14.7 11.0 9.3 70 2.8 SE 19 24 10 13 1016.9 1016.9 0.0
27/07:30am 14.0 12.1 9.0 72 2.5 S 9 13 5 7 1016.7 1016.7 0.0
27/07:00am 13.3 10.5 8.4 72 2.4 S 13 15 7 8 1016.5 1016.5 0.0
27/06:30am 12.8 9.9 8.3 74 2.2 SSE 13 19 7 10 1016.3 1016.3 0.0
27/06:00am 11.6 9.1 8.3 80 1.6 S 11 15 6 8 1016.3 1016.3 0.0
27/05:30am 10.0 8.0 7.1 82 1.4 S 7 9 4 5 1016.2 1016.2 0.0
27/05:00am 9.8 7.9 6.9 82 1.4 SSE 6 7 3 4 1016.1 1016.1 0.0
27/04:30am 10.5 7.7 7.0 79 1.7 S 11 13 6 7 1016.1 1016.1 0.0
27/04:00am 10.0 7.1 6.7 80 1.5 S 11 15 6 8 1016.3 1016.3 0.0
27/03:30am 10.4 8.0 7.1 80 1.6 SSE 9 11 5 6 1016.6 1016.6 0.0
27/03:00am 9.9 7.7 6.4 79 1.6 SE 7 9 4 5 1016.6 1016.6 0.0
27/02:30am 10.6 8.2 6.9 78 1.8 SSE 9 9 5 5 1016.7 1016.7 0.0
27/02:00am 11.2 8.4 7.1 76 2.0 SSE 11 13 6 7 1017.0 1017.0 0.0
27/01:30am 11.3 8.9 7.0 75 2.0 SSE 9 11 5 6 1017.3 1017.3 0.0
27/01:00am 11.5 9.1 7.0 74 2.1 SE 9 11 5 6 1017.4 1017.4 0.0
27/12:30am 12.0 8.8 6.9 71 2.4 SE 13 15 7 8 1017.6 1017.6 0.0
27/12:00am 12.8 8.9 7.3 69 2.7 ESE 17 20 9 11 1017.7 1017.7 0.0
 
Date/Time
EDT
Temp
°C
App
Temp
°C
Dew
Point
Rel
Hum
%
Delta-T
°C
Wind Press
QNH
hPa
Press
MSL
hPa
Rain
since 9 am
mm
Dir
 
Spd
km/h
Gust
km/h
Spd
kts
Gust
kts
26/11:30pm 12.3 9.9 7.0 70 2.5 SSE 9 15 5 8 1017.7 1017.7 0.0
26/11:00pm 13.1 10.1 7.8 70 2.6 SSE 13 15 7 8 1017.9 1017.9 0.0
26/10:30pm 13.3 10.2 7.3 67 2.9 SE 13 19 7 10 1018.0 1018.0 0.0
26/10:00pm 14.1 10.3 7.4 64 3.3 SE 17 22 9 12 1017.8 1017.8 0.0
26/09:30pm 14.1 10.6 7.4 64 3.3 SE 15 20 8 11 1017.6 1017.6 0.0
26/09:00pm 15.1 10.7 7.4 60 3.8 SSE 20 30 11 16 1017.3 1017.3 0.0
26/08:30pm 15.5 10.2 7.0 57 4.2 SSE 24 35 13 19 1017.2 1017.2 0.0
26/08:00pm 16.0 10.6 6.4 53 4.7 SSE 24 35 13 19 1017.0 1017.0 0.0
26/07:30pm 16.8 11.3 5.7 48 5.4 S 24 32 13 17 1016.5 1016.5 0.0
26/07:00pm 17.6 12.2 6.2 47 5.6 S 24 35 13 19 1016.2 1016.2 0.0
26/06:30pm 17.6 11.4 6.2 47 5.6 S 28 39 15 21 1016.0 1016.0 0.0
26/06:00pm 18.5 12.0 6.7 46 5.9 SSW 30 41 16 22 1015.8 1015.8 0.0
26/05:30pm 18.4 12.3 6.6 46 5.9 S 28 37 15 20 1015.8 1015.8 0.0
26/05:00pm 18.1 11.4 5.7 44 6.0 S 30 35 16 19 1016.0 1016.0 0.0
26/04:30pm 18.5 12.5 7.0 47 5.8 S 28 37 15 20 1015.9 1015.9 0.0
26/04:00pm 19.3 14.0 6.8 44 6.3 S 24 32 13 17 1015.9 1015.9 0.0
26/03:30pm 19.5 14.3 7.3 45 6.2 SSW 24 33 13 18 1016.0 1016.0 0.0
26/03:00pm 18.6 13.5 7.7 49 5.5 SSW 24 33 13 18 1016.0 1016.0 0.0
26/02:30pm 18.4 14.0 7.2 48 5.6 SSW 20 32 11 17 1016.1 1016.1 0.0
26/02:00pm 18.2 13.8 7.3 49 5.5 SSW 20 30 11 16 1016.3 1016.3 0.0
26/01:30pm 17.9 12.5 6.4 47 5.7 SSW 24 33 13 18 1016.5 1016.5 0.0
26/01:00pm 17.6 13.3 7.1 50 5.2 SSW 19 28 10 15 1016.7 1016.7 0.0
26/12:30pm 17.9 13.3 6.4 47 5.7 S 20 28 11 15 1016.7 1016.7 0.0
26/12:00pm 17.4 14.0 7.7 53 4.9 S 15 24 8 13 1016.8 1016.8 0.0
26/11:30am 16.5 13.6 8.2 58 4.2 SW 13 19 7 10 1016.8 1016.8 0.0
26/11:00am 16.3 14.4 10.6 69 3.0 WNW 11 15 6 8 1016.9 1016.9 0.0
26/10:30am 15.1 13.3 10.7 75 2.3 NW 11 17 6 9 1017.0 1017.0 0.0
26/10:00am 14.2 12.7 10.6 79 1.9 NNW 9 11 5 6 1016.8 1016.8 0.0
26/09:30am 13.5 11.5 10.3 81 1.7 NW 11 13 6 7 1016.9 1016.9 0.0
26/09:00am 13.3 11.8 10.5 83 1.5 NW 9 11 5 6 1016.6 1016.6 2.4
26/08:30am 12.2 9.4 10.1 87 1.1 NNW 15 17 8 9 1016.5 1016.5 2.4
26/08:00am 11.9 9.5 10.0 88 1.0 NNW 13 17 7 9 1016.2 1016.2 2.4
26/07:30am 11.8 9.4 9.9 88 1.0 NW 13 17 7 9 1015.6 1015.6 1.6
26/07:00am 12.1 10.1 10.0 87 1.1 NNW 11 15 6 8 1015.2 1015.2 1.0
26/06:30am 11.9 9.0 9.8 87 1.1 NNW 15 19 8 10 1015.1 1015.1 0.8
26/06:00am 12.3 10.2 9.9 85 1.2 NNE 11 13 6 7 1014.8 1014.8 0.8
26/05:30am 12.6 12.2 8.3 75 2.1 CALM 0 6 0 3 1014.5 1014.5 0.8
26/05:00am 12.2 9.6 9.2 82 1.5 S 13 20 7 11 1014.3 1014.3 0.8
26/04:43am 12.0 8.7 9.6 85 1.2 SE 17 24 9 13 1014.4 1014.4 0.6
26/04:32am 12.0 8.1 9.4 84 1.3 SSE 20 30 11 16 1014.3 1014.3 0.6
26/04:30am 12.3 8.4 9.5 83 1.4 SSE 20 30 11 16 1014.3 1014.3 0.4
26/04:00am 13.3 10.4 8.0 70 2.6 ENE 13 15 7 8 1013.7 1013.7 0.0
26/03:30am 13.7 11.5 7.7 67 3.0 NNE 9 13 5 7 1013.7 1013.7 0.0

Other Formats:

Comma delimited format used in spreadsheet applications
http://www.bom.gov.au/fwo/IDV60801/IDV60801.94870.axf

JavaScript Object Notation format (JSON) in row-major order
http://www.bom.gov.au/fwo/IDV60801/IDV60801.94870.json